sensor_id;sensor_type;location;lat;lon;timestamp;P1;durP1;ratioP1;P2;durP2;ratioP2
75655;SDS011;64252;51.094;13.714;2023-02-11T00:01:30;29.00;;;14.70;;
75655;SDS011;64252;51.094;13.714;2023-02-11T00:03:57;25.63;;;10.68;;
75655;SDS011;64252;51.094;13.714;2023-02-11T00:06:24;25.20;;;11.45;;
75655;SDS011;64252;51.094;13.714;2023-02-11T00:08:52;22.13;;;10.55;;
75655;SDS011;64252;51.094;13.714;2023-02-11T00:11:18;26.42;;;12.23;;
75655;SDS011;64252;51.094;13.714;2023-02-11T00:13:46;21.77;;;10.38;;
75655;SDS011;64252;51.094;13.714;2023-02-11T00:16:14;25.25;;;10.75;;
75655;SDS011;64252;51.094;13.714;2023-02-11T00:18:41;21.92;;;11.32;;
75655;SDS011;64252;51.094;13.714;2023-02-11T00:21:07;23.27;;;11.38;;
75655;SDS011;64252;51.094;13.714;2023-02-11T00:23:36;23.95;;;11.85;;
75655;SDS011;64252;51.094;13.714;2023-02-11T00:26:02;28.13;;;12.30;;
75655;SDS011;64252;51.094;13.714;2023-02-11T00:28:28;25.63;;;11.77;;
75655;SDS011;64252;51.094;13.714;2023-02-11T00:30:56;22.92;;;11.75;;
75655;SDS011;64252;51.094;13.714;2023-02-11T00:33:22;21.58;;;10.52;;
75655;SDS011;64252;51.094;13.714;2023-02-11T00:35:48;21.77;;;10.02;;
75655;SDS011;64252;51.094;13.714;2023-02-11T00:38:14;21.42;;;10.50;;
75655;SDS011;64252;51.094;13.714;2023-02-11T00:40:41;19.90;;;9.75;;
75655;SDS011;64252;51.094;13.714;2023-02-11T00:43:06;23.00;;;11.55;;
75655;SDS011;64252;51.094;13.714;2023-02-11T00:45:32;24.92;;;12.75;;
75655;SDS011;64252;51.094;13.714;2023-02-11T00:47:57;27.17;;;13.23;;
75655;SDS011;64252;51.094;13.714;2023-02-11T00:50:23;24.92;;;11.63;;
75655;SDS011;64252;51.094;13.714;2023-02-11T00:52:48;25.67;;;12.90;;
75655;SDS011;64252;51.094;13.714;2023-02-11T00:55:14;27.23;;;13.23;;
75655;SDS011;64252;51.094;13.714;2023-02-11T00:57:40;22.48;;;10.52;;
75655;SDS011;64252;51.094;13.714;2023-02-11T01:00:06;21.98;;;10.35;;
75655;SDS011;64252;51.094;13.714;2023-02-11T01:02:32;28.48;;;12.45;;
75655;SDS011;64252;51.094;13.714;2023-02-11T01:04:58;22.08;;;10.30;;
75655;SDS011;64252;51.094;13.714;2023-02-11T01:07:24;25.20;;;13.13;;
75655;SDS011;64252;51.094;13.714;2023-02-11T01:09:50;20.63;;;9.98;;
75655;SDS011;64252;51.094;13.714;2023-02-11T01:12:16;22.73;;;10.55;;
75655;SDS011;64252;51.094;13.714;2023-02-11T01:14:41;31.38;;;12.88;;
75655;SDS011;64252;51.094;13.714;2023-02-11T01:17:07;24.83;;;13.00;;
75655;SDS011;64252;51.094;13.714;2023-02-11T01:19:33;27.35;;;13.77;;
75655;SDS011;64252;51.094;13.714;2023-02-11T01:21:58;23.80;;;11.35;;
75655;SDS011;64252;51.094;13.714;2023-02-11T01:24:24;27.00;;;13.15;;
75655;SDS011;64252;51.094;13.714;2023-02-11T01:26:49;24.85;;;12.30;;
75655;SDS011;64252;51.094;13.714;2023-02-11T01:29:15;27.75;;;13.82;;
75655;SDS011;64252;51.094;13.714;2023-02-11T01:31:40;20.70;;;10.32;;
75655;SDS011;64252;51.094;13.714;2023-02-11T01:34:06;25.20;;;12.23;;
75655;SDS011;64252;51.094;13.714;2023-02-11T01:36:31;25.52;;;11.45;;
75655;SDS011;64252;51.094;13.714;2023-02-11T01:38:58;24.23;;;12.45;;
75655;SDS011;64252;51.094;13.714;2023-02-11T01:41:24;21.63;;;11.13;;
75655;SDS011;64252;51.094;13.714;2023-02-11T01:43:49;23.90;;;10.55;;
75655;SDS011;64252;51.094;13.714;2023-02-11T01:48:54;18.83;;;9.77;;
75655;SDS011;64252;51.094;13.714;2023-02-11T01:52:15;24.42;;;11.90;;
75655;SDS011;64252;51.094;13.714;2023-02-11T01:54:40;25.77;;;13.00;;
75655;SDS011;64252;51.094;13.714;2023-02-11T01:57:28;24.85;;;13.23;;
75655;SDS011;64252;51.094;13.714;2023-02-11T02:10:33;25.02;;;12.55;;
75655;SDS011;64252;51.094;13.714;2023-02-11T02:13:00;20.52;;;10.45;;
75655;SDS011;64252;51.094;13.714;2023-02-11T02:15:28;22.75;;;11.63;;
75655;SDS011;64252;51.094;13.714;2023-02-11T02:26:17;24.23;;;10.63;;
75655;SDS011;64252;51.094;13.714;2023-02-11T02:35:02;22.38;;;10.60;;
75655;SDS011;64252;51.094;13.714;2023-02-11T02:37:54;23.10;;;11.60;;
75655;SDS011;64252;51.094;13.714;2023-02-11T02:40:30;20.10;;;10.35;;
75655;SDS011;64252;51.094;13.714;2023-02-11T02:42:59;23.98;;;12.07;;
75655;SDS011;64252;51.094;13.714;2023-02-11T02:45:26;16.70;;;8.35;;
75655;SDS011;64252;51.094;13.714;2023-02-11T02:47:51;22.75;;;11.90;;
75655;SDS011;64252;51.094;13.714;2023-02-11T02:50:18;25.52;;;11.30;;
75655;SDS011;64252;51.094;13.714;2023-02-11T02:52:54;23.55;;;12.68;;
75655;SDS011;64252;51.094;13.714;2023-02-11T03:09:06;17.08;;;9.50;;
75655;SDS011;64252;51.094;13.714;2023-02-11T03:11:37;18.10;;;9.27;;
75655;SDS011;64252;51.094;13.714;2023-02-11T03:14:05;21.73;;;10.93;;
75655;SDS011;64252;51.094;13.714;2023-02-11T03:16:34;25.75;;;11.20;;
75655;SDS011;64252;51.094;13.714;2023-02-11T03:19:21;28.08;;;12.77;;
75655;SDS011;64252;51.094;13.714;2023-02-11T03:21:50;21.45;;;11.77;;
75655;SDS011;64252;51.094;13.714;2023-02-11T03:24:32;21.42;;;11.07;;
75655;SDS011;64252;51.094;13.714;2023-02-11T03:27:05;24.83;;;12.63;;
75655;SDS011;64252;51.094;13.714;2023-02-11T03:29:47;22.40;;;11.90;;
75655;SDS011;64252;51.094;13.714;2023-02-11T03:32:26;22.98;;;12.32;;
75655;SDS011;64252;51.094;13.714;2023-02-11T03:35:00;25.10;;;13.68;;
75655;SDS011;64252;51.094;13.714;2023-02-11T03:38:14;24.55;;;12.05;;
75655;SDS011;64252;51.094;13.714;2023-02-11T03:40:52;24.45;;;12.63;;
75655;SDS011;64252;51.094;13.714;2023-02-11T03:43:27;23.60;;;12.25;;
75655;SDS011;64252;51.094;13.714;2023-02-11T03:45:58;21.88;;;12.43;;
75655;SDS011;64252;51.094;13.714;2023-02-11T03:48:43;23.63;;;11.98;;
75655;SDS011;64252;51.094;13.714;2023-02-11T03:51:13;20.23;;;11.20;;
75655;SDS011;64252;51.094;13.714;2023-02-11T03:53:42;21.17;;;11.38;;
75655;SDS011;64252;51.094;13.714;2023-02-11T03:56:11;24.20;;;11.80;;
75655;SDS011;64252;51.094;13.714;2023-02-11T03:58:42;24.90;;;12.73;;
75655;SDS011;64252;51.094;13.714;2023-02-11T04:01:09;24.13;;;12.63;;
75655;SDS011;64252;51.094;13.714;2023-02-11T04:03:35;29.42;;;15.07;;
75655;SDS011;64252;51.094;13.714;2023-02-11T04:06:01;24.25;;;12.18;;
75655;SDS011;64252;51.094;13.714;2023-02-11T04:08:26;26.98;;;14.48;;
75655;SDS011;64252;51.094;13.714;2023-02-11T04:10:52;23.85;;;12.52;;
75655;SDS011;64252;51.094;13.714;2023-02-11T04:13:17;25.67;;;13.07;;
75655;SDS011;64252;51.094;13.714;2023-02-11T04:15:43;21.77;;;11.85;;
75655;SDS011;64252;51.094;13.714;2023-02-11T04:18:08;22.83;;;12.65;;
75655;SDS011;64252;51.094;13.714;2023-02-11T04:20:34;18.95;;;10.85;;
75655;SDS011;64252;51.094;13.714;2023-02-11T04:22:59;30.98;;;14.63;;
75655;SDS011;64252;51.094;13.714;2023-02-11T04:25:25;24.15;;;12.32;;
75655;SDS011;64252;51.094;13.714;2023-02-11T04:27:51;21.45;;;10.70;;
75655;SDS011;64252;51.094;13.714;2023-02-11T04:30:17;22.55;;;11.60;;
75655;SDS011;64252;51.094;13.714;2023-02-11T04:32:43;25.95;;;14.23;;
75655;SDS011;64252;51.094;13.714;2023-02-11T04:35:08;22.80;;;11.20;;
75655;SDS011;64252;51.094;13.714;2023-02-11T04:37:34;24.08;;;12.30;;
75655;SDS011;64252;51.094;13.714;2023-02-11T04:40:00;22.83;;;11.93;;
75655;SDS011;64252;51.094;13.714;2023-02-11T04:42:25;25.55;;;12.95;;
75655;SDS011;64252;51.094;13.714;2023-02-11T04:44:51;29.83;;;14.73;;
75655;SDS011;64252;51.094;13.714;2023-02-11T04:47:17;25.45;;;12.43;;
75655;SDS011;64252;51.094;13.714;2023-02-11T04:49:43;21.30;;;11.93;;
75655;SDS011;64252;51.094;13.714;2023-02-11T04:52:08;25.50;;;14.27;;
75655;SDS011;64252;51.094;13.714;2023-02-11T04:54:34;25.23;;;13.27;;
75655;SDS011;64252;51.094;13.714;2023-02-11T04:57:00;27.33;;;13.80;;
75655;SDS011;64252;51.094;13.714;2023-02-11T04:59:25;28.63;;;13.10;;
75655;SDS011;64252;51.094;13.714;2023-02-11T05:01:51;24.45;;;11.60;;
75655;SDS011;64252;51.094;13.714;2023-02-11T05:04:17;27.10;;;12.93;;
75655;SDS011;64252;51.094;13.714;2023-02-11T05:06:42;23.83;;;12.23;;
75655;SDS011;64252;51.094;13.714;2023-02-11T05:09:09;25.60;;;13.07;;
75655;SDS011;64252;51.094;13.714;2023-02-11T05:11:36;27.00;;;14.85;;
75655;SDS011;64252;51.094;13.714;2023-02-11T05:14:03;28.20;;;13.63;;
75655;SDS011;64252;51.094;13.714;2023-02-11T05:16:29;27.45;;;14.70;;
75655;SDS011;64252;51.094;13.714;2023-02-11T05:18:55;23.48;;;13.43;;
75655;SDS011;64252;51.094;13.714;2023-02-11T05:21:20;28.23;;;14.32;;
75655;SDS011;64252;51.094;13.714;2023-02-11T05:23:46;22.67;;;12.35;;
75655;SDS011;64252;51.094;13.714;2023-02-11T05:26:13;25.77;;;13.55;;
75655;SDS011;64252;51.094;13.714;2023-02-11T05:28:39;26.60;;;14.15;;
75655;SDS011;64252;51.094;13.714;2023-02-11T05:31:05;26.00;;;14.23;;
75655;SDS011;64252;51.094;13.714;2023-02-11T05:33:31;25.52;;;13.57;;
75655;SDS011;64252;51.094;13.714;2023-02-11T05:36:04;31.67;;;14.23;;
75655;SDS011;64252;51.094;13.714;2023-02-11T05:38:32;29.65;;;14.35;;
75655;SDS011;64252;51.094;13.714;2023-02-11T05:40:58;27.02;;;14.23;;
75655;SDS011;64252;51.094;13.714;2023-02-11T05:43:24;24.08;;;13.15;;
75655;SDS011;64252;51.094;13.714;2023-02-11T05:45:50;25.58;;;13.52;;
75655;SDS011;64252;51.094;13.714;2023-02-11T05:48:15;24.25;;;12.82;;
75655;SDS011;64252;51.094;13.714;2023-02-11T05:50:42;31.58;;;15.27;;
75655;SDS011;64252;51.094;13.714;2023-02-11T05:53:07;27.60;;;14.57;;
75655;SDS011;64252;51.094;13.714;2023-02-11T05:55:33;27.17;;;14.38;;
75655;SDS011;64252;51.094;13.714;2023-02-11T05:57:58;26.08;;;12.55;;
75655;SDS011;64252;51.094;13.714;2023-02-11T06:00:24;27.65;;;15.13;;
75655;SDS011;64252;51.094;13.714;2023-02-11T06:02:50;27.52;;;14.23;;
75655;SDS011;64252;51.094;13.714;2023-02-11T06:05:15;32.53;;;16.05;;
75655;SDS011;64252;51.094;13.714;2023-02-11T06:07:41;29.65;;;15.50;;
75655;SDS011;64252;51.094;13.714;2023-02-11T06:10:07;28.98;;;16.35;;
75655;SDS011;64252;51.094;13.714;2023-02-11T06:12:33;33.70;;;15.45;;
75655;SDS011;64252;51.094;13.714;2023-02-11T06:14:58;31.85;;;17.13;;
75655;SDS011;64252;51.094;13.714;2023-02-11T06:17:24;30.15;;;14.63;;
75655;SDS011;64252;51.094;13.714;2023-02-11T06:19:49;27.95;;;14.85;;
75655;SDS011;64252;51.094;13.714;2023-02-11T06:22:16;32.22;;;16.40;;
75655;SDS011;64252;51.094;13.714;2023-02-11T06:24:43;27.88;;;13.50;;
75655;SDS011;64252;51.094;13.714;2023-02-11T06:27:08;28.55;;;15.20;;
75655;SDS011;64252;51.094;13.714;2023-02-11T06:29:34;31.77;;;15.88;;
75655;SDS011;64252;51.094;13.714;2023-02-11T06:32:00;27.80;;;13.73;;
75655;SDS011;64252;51.094;13.714;2023-02-11T06:36:55;29.88;;;14.15;;
75655;SDS011;64252;51.094;13.714;2023-02-11T06:39:20;32.28;;;15.60;;
75655;SDS011;64252;51.094;13.714;2023-02-11T06:41:46;31.48;;;14.55;;
75655;SDS011;64252;51.094;13.714;2023-02-11T06:44:11;33.17;;;16.77;;
75655;SDS011;64252;51.094;13.714;2023-02-11T06:46:37;25.35;;;13.20;;
75655;SDS011;64252;51.094;13.714;2023-02-11T06:49:03;30.67;;;14.50;;
75655;SDS011;64252;51.094;13.714;2023-02-11T06:51:32;28.45;;;14.88;;
75655;SDS011;64252;51.094;13.714;2023-02-11T06:53:58;32.33;;;15.93;;
75655;SDS011;64252;51.094;13.714;2023-02-11T06:56:25;30.42;;;16.15;;
75655;SDS011;64252;51.094;13.714;2023-02-11T06:58:52;33.53;;;16.80;;
75655;SDS011;64252;51.094;13.714;2023-02-11T07:01:19;32.40;;;16.35;;
75655;SDS011;64252;51.094;13.714;2023-02-11T07:03:45;25.45;;;13.43;;
75655;SDS011;64252;51.094;13.714;2023-02-11T07:06:13;30.98;;;15.95;;
75655;SDS011;64252;51.094;13.714;2023-02-11T07:08:40;32.13;;;15.85;;
75655;SDS011;64252;51.094;13.714;2023-02-11T07:11:08;29.83;;;14.85;;
75655;SDS011;64252;51.094;13.714;2023-02-11T07:13:35;30.38;;;15.95;;
75655;SDS011;64252;51.094;13.714;2023-02-11T07:16:08;32.63;;;15.02;;
75655;SDS011;64252;51.094;13.714;2023-02-11T07:18:35;28.73;;;15.55;;
75655;SDS011;64252;51.094;13.714;2023-02-11T07:21:04;30.48;;;16.30;;
75655;SDS011;64252;51.094;13.714;2023-02-11T07:26:00;29.60;;;13.93;;
75655;SDS011;64252;51.094;13.714;2023-02-11T07:28:30;32.20;;;16.92;;
75655;SDS011;64252;51.094;13.714;2023-02-11T07:30:56;28.90;;;13.88;;
75655;SDS011;64252;51.094;13.714;2023-02-11T07:33:22;32.95;;;16.40;;
75655;SDS011;64252;51.094;13.714;2023-02-11T07:35:48;29.55;;;16.17;;
75655;SDS011;64252;51.094;13.714;2023-02-11T07:38:13;35.63;;;18.63;;
75655;SDS011;64252;51.094;13.714;2023-02-11T07:40:39;29.15;;;15.40;;
75655;SDS011;64252;51.094;13.714;2023-02-11T07:43:04;31.05;;;15.25;;
75655;SDS011;64252;51.094;13.714;2023-02-11T07:45:30;28.67;;;15.07;;
75655;SDS011;64252;51.094;13.714;2023-02-11T07:47:55;34.00;;;15.57;;
75655;SDS011;64252;51.094;13.714;2023-02-11T07:50:21;34.13;;;16.48;;
75655;SDS011;64252;51.094;13.714;2023-02-11T07:52:47;34.35;;;16.88;;
75655;SDS011;64252;51.094;13.714;2023-02-11T07:55:13;30.17;;;15.45;;
75655;SDS011;64252;51.094;13.714;2023-02-11T07:57:38;36.38;;;18.42;;
75655;SDS011;64252;51.094;13.714;2023-02-11T08:00:05;37.33;;;18.42;;
75655;SDS011;64252;51.094;13.714;2023-02-11T08:02:35;30.38;;;14.93;;
75655;SDS011;64252;51.094;13.714;2023-02-11T08:05:01;30.35;;;14.80;;
75655;SDS011;64252;51.094;13.714;2023-02-11T08:07:26;30.42;;;15.25;;
75655;SDS011;64252;51.094;13.714;2023-02-11T08:09:53;38.78;;;17.35;;
75655;SDS011;64252;51.094;13.714;2023-02-11T08:12:19;28.50;;;13.07;;
75655;SDS011;64252;51.094;13.714;2023-02-11T08:14:46;30.50;;;15.07;;
75655;SDS011;64252;51.094;13.714;2023-02-11T08:17:11;27.67;;;14.32;;
75655;SDS011;64252;51.094;13.714;2023-02-11T08:19:38;34.45;;;17.00;;
75655;SDS011;64252;51.094;13.714;2023-02-11T08:22:03;29.08;;;14.55;;
75655;SDS011;64252;51.094;13.714;2023-02-11T08:24:29;28.90;;;14.20;;
75655;SDS011;64252;51.094;13.714;2023-02-11T08:26:54;32.88;;;15.02;;
75655;SDS011;64252;51.094;13.714;2023-02-11T08:29:20;31.17;;;15.35;;
75655;SDS011;64252;51.094;13.714;2023-02-11T08:31:46;27.52;;;13.52;;
75655;SDS011;64252;51.094;13.714;2023-02-11T08:34:12;30.95;;;14.52;;
75655;SDS011;64252;51.094;13.714;2023-02-11T08:36:39;28.15;;;13.30;;
75655;SDS011;64252;51.094;13.714;2023-02-11T08:39:07;27.02;;;13.00;;
75655;SDS011;64252;51.094;13.714;2023-02-11T08:41:37;28.60;;;13.75;;
75655;SDS011;64252;51.094;13.714;2023-02-11T08:44:05;27.63;;;14.30;;
75655;SDS011;64252;51.094;13.714;2023-02-11T08:46:30;29.67;;;13.88;;
75655;SDS011;64252;51.094;13.714;2023-02-11T08:48:56;30.13;;;14.45;;
75655;SDS011;64252;51.094;13.714;2023-02-11T08:51:23;27.95;;;14.02;;
75655;SDS011;64252;51.094;13.714;2023-02-11T08:53:52;29.20;;;14.60;;
75655;SDS011;64252;51.094;13.714;2023-02-11T08:56:19;28.15;;;14.60;;
75655;SDS011;64252;51.094;13.714;2023-02-11T08:58:45;25.10;;;12.98;;
75655;SDS011;64252;51.094;13.714;2023-02-11T09:01:11;26.13;;;13.07;;
75655;SDS011;64252;51.094;13.714;2023-02-11T09:03:39;27.05;;;13.68;;
75655;SDS011;64252;51.094;13.714;2023-02-11T09:06:05;28.02;;;13.32;;
75655;SDS011;64252;51.094;13.714;2023-02-11T09:08:36;28.10;;;14.98;;
75655;SDS011;64252;51.094;13.714;2023-02-11T09:11:04;31.65;;;13.80;;
75655;SDS011;64252;51.094;13.714;2023-02-11T09:13:33;30.33;;;16.38;;
75655;SDS011;64252;51.094;13.714;2023-02-11T09:15:59;32.17;;;16.05;;
75655;SDS011;64252;51.094;13.714;2023-02-11T09:18:25;27.83;;;14.68;;
75655;SDS011;64252;51.094;13.714;2023-02-11T09:20:52;25.42;;;13.15;;
75655;SDS011;64252;51.094;13.714;2023-02-11T09:23:32;26.67;;;14.05;;
75655;SDS011;64252;51.094;13.714;2023-02-11T09:26:07;31.10;;;15.70;;
75655;SDS011;64252;51.094;13.714;2023-02-11T09:28:38;28.33;;;15.38;;
75655;SDS011;64252;51.094;13.714;2023-02-11T09:31:06;29.02;;;14.73;;
75655;SDS011;64252;51.094;13.714;2023-02-11T09:33:36;32.53;;;15.52;;
75655;SDS011;64252;51.094;13.714;2023-02-11T09:36:04;30.92;;;15.32;;
75655;SDS011;64252;51.094;13.714;2023-02-11T09:38:30;26.48;;;13.27;;
75655;SDS011;64252;51.094;13.714;2023-02-11T09:40:57;30.98;;;14.23;;
75655;SDS011;64252;51.094;13.714;2023-02-11T09:43:26;29.08;;;14.18;;
75655;SDS011;64252;51.094;13.714;2023-02-11T09:46:00;31.15;;;15.27;;
75655;SDS011;64252;51.094;13.714;2023-02-11T09:48:26;34.83;;;17.90;;
75655;SDS011;64252;51.094;13.714;2023-02-11T09:50:56;27.08;;;13.20;;
75655;SDS011;64252;51.094;13.714;2023-02-11T09:53:25;32.92;;;17.40;;
75655;SDS011;64252;51.094;13.714;2023-02-11T09:55:53;35.25;;;16.15;;
75655;SDS011;64252;51.094;13.714;2023-02-11T10:01:14;30.08;;;14.73;;
75655;SDS011;64252;51.094;13.714;2023-02-11T10:06:52;34.08;;;17.48;;
75655;SDS011;64252;51.094;13.714;2023-02-11T10:12:10;28.50;;;13.82;;
75655;SDS011;64252;51.094;13.714;2023-02-11T10:25:00;27.52;;;14.68;;
75655;SDS011;64252;51.094;13.714;2023-02-11T10:27:41;27.20;;;15.18;;
75655;SDS011;64252;51.094;13.714;2023-02-11T10:30:15;29.13;;;14.77;;
75655;SDS011;64252;51.094;13.714;2023-02-11T10:32:47;29.52;;;14.68;;
75655;SDS011;64252;51.094;13.714;2023-02-11T10:35:18;27.85;;;15.65;;
75655;SDS011;64252;51.094;13.714;2023-02-11T10:37:46;24.80;;;13.75;;
75655;SDS011;64252;51.094;13.714;2023-02-11T10:40:13;24.73;;;12.77;;
75655;SDS011;64252;51.094;13.714;2023-02-11T10:42:41;25.65;;;13.27;;
75655;SDS011;64252;51.094;13.714;2023-02-11T10:45:14;26.85;;;14.07;;
75655;SDS011;64252;51.094;13.714;2023-02-11T10:50:32;24.80;;;13.70;;
75655;SDS011;64252;51.094;13.714;2023-02-11T10:53:14;25.58;;;12.68;;
75655;SDS011;64252;51.094;13.714;2023-02-11T10:55:52;25.45;;;14.07;;
75655;SDS011;64252;51.094;13.714;2023-02-11T10:58:27;24.20;;;13.75;;
75655;SDS011;64252;51.094;13.714;2023-02-11T11:01:01;26.17;;;14.75;;
75655;SDS011;64252;51.094;13.714;2023-02-11T11:03:37;25.65;;;13.48;;
75655;SDS011;64252;51.094;13.714;2023-02-11T11:06:09;27.27;;;14.70;;
75655;SDS011;64252;51.094;13.714;2023-02-11T11:08:46;25.92;;;13.82;;
75655;SDS011;64252;51.094;13.714;2023-02-11T11:11:16;28.45;;;13.65;;
75655;SDS011;64252;51.094;13.714;2023-02-11T11:16:23;23.85;;;12.82;;
75655;SDS011;64252;51.094;13.714;2023-02-11T11:18:53;24.65;;;13.30;;
75655;SDS011;64252;51.094;13.714;2023-02-11T11:21:43;28.45;;;14.27;;
75655;SDS011;64252;51.094;13.714;2023-02-11T11:24:51;26.35;;;14.73;;
75655;SDS011;64252;51.094;13.714;2023-02-11T11:27:04;27.00;;;13.88;;
75655;SDS011;64252;51.094;13.714;2023-02-11T11:29:32;26.17;;;13.30;;
75655;SDS011;64252;51.094;13.714;2023-02-11T11:32:15;23.35;;;12.88;;
75655;SDS011;64252;51.094;13.714;2023-02-11T11:34:49;26.60;;;14.00;;
75655;SDS011;64252;51.094;13.714;2023-02-11T11:37:39;28.25;;;14.75;;
75655;SDS011;64252;51.094;13.714;2023-02-11T11:40:07;29.48;;;15.85;;
75655;SDS011;64252;51.094;13.714;2023-02-11T11:45:01;28.05;;;14.52;;
75655;SDS011;64252;51.094;13.714;2023-02-11T11:50:22;27.05;;;14.52;;
75655;SDS011;64252;51.094;13.714;2023-02-11T11:53:06;26.55;;;14.45;;
75655;SDS011;64252;51.094;13.714;2023-02-11T11:55:43;23.55;;;12.07;;
75655;SDS011;64252;51.094;13.714;2023-02-11T11:58:19;25.88;;;13.68;;
75655;SDS011;64252;51.094;13.714;2023-02-11T12:06:51;23.15;;;11.95;;
75655;SDS011;64252;51.094;13.714;2023-02-11T12:09:33;26.40;;;14.27;;
75655;SDS011;64252;51.094;13.714;2023-02-11T12:14:48;26.25;;;13.13;;
75655;SDS011;64252;51.094;13.714;2023-02-11T12:20:16;27.70;;;12.52;;
75655;SDS011;64252;51.094;13.714;2023-02-11T12:22:54;22.42;;;11.77;;
75655;SDS011;64252;51.094;13.714;2023-02-11T12:25:59;21.75;;;10.98;;
75655;SDS011;64252;51.094;13.714;2023-02-11T12:34:27;24.55;;;12.98;;
75655;SDS011;64252;51.094;13.714;2023-02-11T12:42:50;24.88;;;12.23;;
75655;SDS011;64252;51.094;13.714;2023-02-11T12:48:47;23.23;;;11.65;;
75655;SDS011;64252;51.094;13.714;2023-02-11T12:54:37;26.02;;;13.23;;
75655;SDS011;64252;51.094;13.714;2023-02-11T12:57:14;24.58;;;12.75;;
75655;SDS011;64252;51.094;13.714;2023-02-11T12:59:50;22.88;;;11.73;;
75655;SDS011;64252;51.094;13.714;2023-02-11T13:02:33;27.00;;;13.15;;
75655;SDS011;64252;51.094;13.714;2023-02-11T13:05:08;23.92;;;11.90;;
75655;SDS011;64252;51.094;13.714;2023-02-11T13:07:48;20.80;;;11.90;;
75655;SDS011;64252;51.094;13.714;2023-02-11T13:12:44;23.40;;;12.60;;
75655;SDS011;64252;51.094;13.714;2023-02-11T13:15:31;23.52;;;12.88;;
75655;SDS011;64252;51.094;13.714;2023-02-11T13:20:25;22.45;;;12.20;;
75655;SDS011;64252;51.094;13.714;2023-02-11T13:26:11;25.05;;;12.93;;
75655;SDS011;64252;51.094;13.714;2023-02-11T13:29:15;21.75;;;11.32;;
75655;SDS011;64252;51.094;13.714;2023-02-11T13:31:54;24.90;;;13.05;;
75655;SDS011;64252;51.094;13.714;2023-02-11T13:37:27;20.25;;;10.63;;
75655;SDS011;64252;51.094;13.714;2023-02-11T13:39:58;27.05;;;12.95;;
75655;SDS011;64252;51.094;13.714;2023-02-11T13:42:25;23.52;;;12.02;;
75655;SDS011;64252;51.094;13.714;2023-02-11T13:44:51;22.10;;;12.07;;
75655;SDS011;64252;51.094;13.714;2023-02-11T13:47:25;24.40;;;11.95;;
75655;SDS011;64252;51.094;13.714;2023-02-11T13:49:55;19.17;;;11.32;;
75655;SDS011;64252;51.094;13.714;2023-02-11T13:52:29;21.15;;;10.60;;
75655;SDS011;64252;51.094;13.714;2023-02-11T13:57:36;20.15;;;10.43;;
75655;SDS011;64252;51.094;13.714;2023-02-11T14:03:13;24.00;;;13.25;;
75655;SDS011;64252;51.094;13.714;2023-02-11T14:08:57;22.70;;;11.35;;
75655;SDS011;64252;51.094;13.714;2023-02-11T14:14:01;20.48;;;11.60;;
75655;SDS011;64252;51.094;13.714;2023-02-11T14:16:29;20.58;;;10.52;;
75655;SDS011;64252;51.094;13.714;2023-02-11T14:23:52;23.10;;;11.65;;
75655;SDS011;64252;51.094;13.714;2023-02-11T14:38:18;26.23;;;13.68;;
75655;SDS011;64252;51.094;13.714;2023-02-11T14:43:24;23.25;;;11.80;;
75655;SDS011;64252;51.094;13.714;2023-02-11T14:45:54;19.00;;;10.55;;
75655;SDS011;64252;51.094;13.714;2023-02-11T14:48:29;21.63;;;10.65;;
75655;SDS011;64252;51.094;13.714;2023-02-11T14:51:01;18.02;;;10.50;;
75655;SDS011;64252;51.094;13.714;2023-02-11T14:53:32;24.88;;;13.07;;
75655;SDS011;64252;51.094;13.714;2023-02-11T14:55:59;23.33;;;13.20;;
75655;SDS011;64252;51.094;13.714;2023-02-11T14:58:31;22.42;;;12.85;;
75655;SDS011;64252;51.094;13.714;2023-02-11T15:00:58;20.98;;;11.50;;
75655;SDS011;64252;51.094;13.714;2023-02-11T15:03:40;25.10;;;12.25;;
75655;SDS011;64252;51.094;13.714;2023-02-11T15:06:15;25.48;;;12.68;;
75655;SDS011;64252;51.094;13.714;2023-02-11T15:08:44;19.85;;;11.15;;
75655;SDS011;64252;51.094;13.714;2023-02-11T15:11:20;23.00;;;13.25;;
75655;SDS011;64252;51.094;13.714;2023-02-11T15:13:47;25.02;;;11.50;;
75655;SDS011;64252;51.094;13.714;2023-02-11T15:16:18;29.55;;;15.18;;
75655;SDS011;64252;51.094;13.714;2023-02-11T15:18:53;25.75;;;13.40;;
75655;SDS011;64252;51.094;13.714;2023-02-11T15:21:28;23.65;;;12.73;;
75655;SDS011;64252;51.094;13.714;2023-02-11T15:24:40;29.75;;;14.55;;
75655;SDS011;64252;51.094;13.714;2023-02-11T15:29:39;21.08;;;10.85;;
75655;SDS011;64252;51.094;13.714;2023-02-11T15:34:33;22.65;;;12.25;;
75655;SDS011;64252;51.094;13.714;2023-02-11T15:37:01;21.00;;;11.18;;
75655;SDS011;64252;51.094;13.714;2023-02-11T15:39:29;21.38;;;12.18;;
75655;SDS011;64252;51.094;13.714;2023-02-11T15:41:55;25.23;;;13.05;;
75655;SDS011;64252;51.094;13.714;2023-02-11T15:44:28;21.05;;;11.18;;
75655;SDS011;64252;51.094;13.714;2023-02-11T15:46:56;30.13;;;15.75;;
75655;SDS011;64252;51.094;13.714;2023-02-11T15:49:22;25.15;;;12.35;;
75655;SDS011;64252;51.094;13.714;2023-02-11T15:51:49;21.45;;;10.95;;
75655;SDS011;64252;51.094;13.714;2023-02-11T15:54:16;21.27;;;11.00;;
75655;SDS011;64252;51.094;13.714;2023-02-11T15:56:45;21.25;;;10.90;;
75655;SDS011;64252;51.094;13.714;2023-02-11T15:59:17;22.33;;;11.82;;
75655;SDS011;64252;51.094;13.714;2023-02-11T16:01:50;19.42;;;11.27;;
75655;SDS011;64252;51.094;13.714;2023-02-11T16:04:17;22.10;;;12.48;;
75655;SDS011;64252;51.094;13.714;2023-02-11T16:06:45;18.38;;;10.00;;
75655;SDS011;64252;51.094;13.714;2023-02-11T16:17:38;23.60;;;12.10;;
75655;SDS011;64252;51.094;13.714;2023-02-11T16:19:43;22.10;;;12.50;;
75655;SDS011;64252;51.094;13.714;2023-02-11T16:22:15;22.67;;;13.00;;
75655;SDS011;64252;51.094;13.714;2023-02-11T16:24:44;19.95;;;11.75;;
75655;SDS011;64252;51.094;13.714;2023-02-11T16:27:20;20.92;;;12.45;;
75655;SDS011;64252;51.094;13.714;2023-02-11T16:32:17;21.55;;;12.25;;
75655;SDS011;64252;51.094;13.714;2023-02-11T16:34:46;21.45;;;11.35;;
75655;SDS011;64252;51.094;13.714;2023-02-11T16:37:12;23.10;;;12.60;;
75655;SDS011;64252;51.094;13.714;2023-02-11T16:39:37;21.30;;;12.73;;
75655;SDS011;64252;51.094;13.714;2023-02-11T16:42:03;27.27;;;13.30;;
75655;SDS011;64252;51.094;13.714;2023-02-11T16:44:31;21.70;;;12.27;;
75655;SDS011;64252;51.094;13.714;2023-02-11T16:46:58;23.40;;;12.60;;
75655;SDS011;64252;51.094;13.714;2023-02-11T16:49:29;29.67;;;15.18;;
75655;SDS011;64252;51.094;13.714;2023-02-11T16:51:59;25.75;;;13.45;;
75655;SDS011;64252;51.094;13.714;2023-02-11T16:54:26;32.88;;;15.88;;
75655;SDS011;64252;51.094;13.714;2023-02-11T16:56:52;29.23;;;15.00;;
75655;SDS011;64252;51.094;13.714;2023-02-11T16:59:18;26.80;;;13.60;;
75655;SDS011;64252;51.094;13.714;2023-02-11T17:01:43;25.75;;;14.38;;
75655;SDS011;64252;51.094;13.714;2023-02-11T17:04:12;22.40;;;12.38;;
75655;SDS011;64252;51.094;13.714;2023-02-11T17:06:43;24.42;;;13.40;;